createdAt,value
2022-09-12T00:02:08.306Z,7.65
2022-09-12T00:07:09.869Z,7.25
2022-09-12T00:12:11.422Z,8.45
2022-09-12T00:17:12.946Z,7.57
2022-09-12T00:22:14.485Z,7.43
2022-09-12T00:27:16.104Z,9.77
2022-09-12T00:32:17.633Z,7.45
2022-09-12T00:37:19.166Z,8.80
2022-09-12T00:42:20.705Z,7.00
2022-09-12T00:47:32.789Z,7.50
2022-09-12T00:52:42.454Z,11.07
2022-09-12T00:57:52.254Z,6.30
2022-09-12T01:02:58.944Z,9.38
2022-09-12T01:08:03.240Z,6.75
2022-09-12T01:13:07.249Z,5.90
2022-09-12T01:18:19.067Z,8.35
2022-09-12T01:23:57.304Z,6.63
2022-09-12T01:29:08.064Z,7.05
2022-09-12T01:34:09.538Z,6.82
2022-09-12T01:39:25.988Z,6.70
2022-09-12T01:44:36.281Z,6.65
2022-09-12T01:49:52.211Z,5.55
2022-09-12T01:55:01.626Z,8.95
2022-09-12T02:00:09.915Z,5.93
2022-09-12T02:05:18.206Z,5.33
2022-09-12T02:10:27.134Z,5.90
2022-09-12T02:15:37.869Z,7.80
2022-09-12T02:20:49.197Z,5.90
2022-09-12T02:25:56.147Z,5.78
2022-09-12T02:31:09.653Z,5.75
2022-09-12T02:36:15.444Z,7.68
2022-09-12T02:41:20.660Z,9.80
2022-09-12T02:46:30.976Z,7.15
2022-09-12T02:51:33.086Z,4.68
2022-09-12T02:56:35.410Z,5.25
2022-09-12T03:01:39.664Z,7.63
2022-09-12T03:06:55.450Z,7.32
2022-09-12T03:12:02.645Z,6.10
2022-09-12T03:17:39.800Z,7.32
2022-09-12T03:22:53.767Z,5.03
2022-09-12T03:28:07.383Z,6.40
2022-09-12T03:33:16.684Z,6.68
2022-09-12T03:38:19.225Z,6.72
2022-09-12T03:43:20.881Z,6.15
2022-09-12T03:48:22.472Z,7.13
2022-09-12T03:53:24.018Z,6.80
2022-09-12T03:58:30.653Z,7.20
2022-09-12T04:03:32.175Z,7.82
2022-09-12T04:08:35.521Z,7.28
2022-09-12T04:13:38.272Z,9.77
2022-09-12T04:18:40.257Z,8.40
2022-09-12T04:23:42.579Z,6.05
2022-09-12T04:28:45.073Z,7.03
2022-09-12T04:33:46.973Z,5.78
2022-09-12T04:38:48.603Z,6.63
2022-09-12T04:44:02.388Z,7.88
2022-09-12T04:49:04.378Z,7.70
2022-09-12T04:54:09.376Z,5.70
2022-09-12T04:59:12.130Z,8.60
2022-09-12T05:04:13.859Z,6.05
2022-09-12T05:09:16.553Z,7.38
2022-09-12T05:14:18.086Z,11.70
2022-09-12T05:19:19.634Z,10.00
2022-09-12T05:24:21.163Z,9.55
2022-09-12T05:29:22.900Z,10.63
2022-09-12T05:34:24.635Z,9.80
2022-09-12T05:39:26.207Z,6.90
2022-09-12T05:44:28.274Z,10.25
2022-09-12T05:49:30.287Z,9.43
2022-09-12T05:54:31.912Z,8.73
2022-09-12T05:59:33.467Z,10.50
2022-09-12T06:04:34.986Z,11.60
2022-09-12T06:09:36.560Z,8.75
2022-09-12T06:14:38.938Z,7.68
2022-09-12T06:19:40.474Z,6.70
2022-09-12T06:24:42.117Z,5.78
2022-09-12T06:29:43.688Z,4.85
2022-09-12T06:34:47.695Z,6.93
2022-09-12T06:39:49.332Z,6.68
2022-09-12T06:44:50.979Z,7.63
2022-09-12T06:49:52.516Z,8.07
2022-09-12T06:54:54.046Z,6.72
2022-09-12T06:59:55.587Z,4.15
2022-09-12T07:04:57.100Z,6.05
2022-09-12T07:09:58.675Z,4.47
2022-09-12T07:15:01.117Z,4.47
2022-09-12T07:20:02.973Z,7.22
2022-09-12T07:25:05.175Z,4.53
2022-09-12T07:30:07.875Z,9.88
2022-09-12T07:35:09.472Z,5.53
2022-09-12T07:40:11.196Z,4.32
2022-09-12T07:45:13.390Z,8.85
2022-09-12T07:50:15.672Z,4.32
2022-09-12T07:55:17.314Z,5.05
2022-09-12T08:00:19.335Z,4.00
2022-09-12T08:05:21.006Z,3.40
2022-09-12T08:10:22.548Z,6.28
2022-09-12T08:15:25.194Z,4.45
2022-09-12T08:20:28.460Z,6.20
2022-09-12T08:25:30.468Z,4.68
2022-09-12T08:30:32.075Z,4.85
2022-09-12T08:35:33.644Z,4.55
2022-09-12T08:40:51.379Z,4.15
2022-09-12T08:46:08.672Z,4.27
2022-09-12T08:51:14.174Z,3.47
2022-09-12T08:56:16.799Z,4.78
2022-09-12T09:01:18.336Z,3.80
2022-09-12T09:06:38.453Z,3.33
2022-09-12T09:11:42.742Z,2.63
2022-09-12T09:16:46.804Z,3.03
2022-09-12T09:21:54.580Z,5.43
2022-09-12T09:27:23.498Z,5.97
2022-09-12T09:32:41.133Z,6.53
2022-09-12T09:37:56.761Z,4.13
2022-09-12T09:43:24.528Z,3.95
2022-09-12T09:48:30.855Z,4.60
2022-09-12T09:53:46.329Z,4.18
2022-09-12T09:58:48.033Z,4.03
2022-09-12T10:03:51.285Z,5.82
2022-09-12T10:09:17.526Z,4.13
2022-09-12T10:14:38.000Z,3.10
2022-09-12T10:19:40.447Z,4.85
2022-09-12T10:24:47.303Z,6.50
2022-09-12T10:30:17.880Z,4.45
2022-09-12T10:35:25.940Z,5.45
2022-09-12T10:40:31.720Z,3.60
2022-09-12T10:45:36.399Z,3.72
2022-09-12T10:50:43.842Z,3.55
2022-09-12T10:56:18.450Z,3.55
2022-09-12T11:01:36.402Z,3.83
2022-09-12T11:07:15.229Z,2.40
2022-09-12T11:12:25.965Z,4.30
2022-09-12T11:17:42.449Z,5.05
2022-09-12T11:23:08.056Z,4.15
2022-09-12T11:28:21.826Z,5.13
2022-09-12T11:33:44.131Z,6.18
2022-09-12T11:39:02.231Z,3.70
2022-09-12T11:44:19.039Z,3.67
2022-09-12T11:49:36.845Z,2.28
2022-09-12T11:55:03.881Z,4.70
2022-09-12T12:00:08.780Z,3.30
2022-09-12T12:05:37.316Z,4.05
2022-09-12T12:15:52.866Z,3.65
2022-09-12T12:20:56.078Z,4.55
2022-09-12T12:26:03.541Z,5.07
2022-09-12T12:31:05.515Z,4.65
2022-09-12T12:36:28.908Z,3.55
2022-09-12T12:41:36.202Z,4.10
2022-09-12T12:46:38.682Z,3.83
2022-09-12T12:51:43.077Z,5.05
2022-09-12T12:56:44.693Z,4.22
2022-09-12T13:01:55.310Z,3.17
2022-09-12T13:07:07.170Z,2.60
2022-09-12T13:12:17.521Z,4.15
2022-09-12T13:17:31.472Z,4.10
2022-09-12T13:22:47.759Z,6.18
2022-09-12T13:28:18.475Z,4.38
2022-09-12T13:33:29.186Z,6.50
2022-09-12T13:38:55.549Z,3.92
2022-09-12T13:43:57.278Z,4.60
2022-09-12T13:49:01.157Z,4.40
2022-09-12T13:54:05.409Z,4.60
2022-09-12T13:59:12.417Z,2.70
2022-09-12T14:04:36.804Z,3.85
2022-09-12T14:09:41.515Z,3.40
2022-09-12T14:14:43.955Z,3.97
2022-09-12T14:19:46.691Z,2.97
2022-09-12T14:24:52.575Z,3.22
2022-09-12T14:30:02.304Z,2.80
2022-09-12T14:35:18.236Z,3.42
2022-09-12T14:40:22.441Z,4.63
2022-09-12T14:45:27.204Z,3.78
2022-09-12T14:50:35.355Z,3.53
2022-09-12T14:55:44.974Z,4.05
2022-09-12T15:00:58.557Z,3.55
2022-09-12T15:06:03.129Z,3.85
2022-09-12T15:11:06.642Z,5.45
2022-09-12T15:16:11.728Z,2.47
2022-09-12T15:21:17.475Z,5.00
2022-09-12T15:26:24.066Z,3.65
2022-09-12T15:31:31.243Z,3.33
2022-09-12T15:36:33.307Z,3.83
2022-09-12T15:41:37.129Z,2.65
2022-09-12T15:46:39.142Z,3.55
2022-09-12T15:51:40.800Z,4.28
2022-09-12T15:56:42.571Z,3.75
2022-09-12T16:01:44.131Z,3.20
2022-09-12T16:06:45.733Z,5.57
2022-09-12T16:11:47.731Z,4.35
2022-09-12T16:16:54.330Z,5.13
2022-09-12T16:21:55.911Z,4.35
2022-09-12T16:27:01.161Z,5.22
2022-09-12T16:32:03.392Z,4.60
2022-09-12T16:37:05.677Z,5.85
2022-09-12T16:42:07.347Z,5.65
2022-09-12T16:47:08.872Z,6.28
2022-09-12T16:52:10.955Z,4.80
2022-09-12T16:57:12.529Z,7.60
2022-09-12T17:02:14.995Z,5.13
2022-09-12T17:07:16.595Z,8.10
2022-09-12T17:12:18.122Z,6.32
2022-09-12T17:17:19.745Z,5.82
2022-09-12T17:22:21.331Z,5.88
2022-09-12T17:27:22.860Z,6.35
2022-09-12T17:32:24.525Z,6.70
2022-09-12T17:37:26.061Z,6.55
2022-09-12T17:42:27.619Z,6.10
2022-09-12T17:47:29.188Z,4.47
2022-09-12T17:52:31.101Z,5.22
2022-09-12T17:57:32.615Z,9.82
2022-09-12T18:02:35.118Z,7.82
2022-09-12T18:07:38.968Z,8.88
2022-09-12T18:12:43.731Z,7.15
2022-09-12T18:17:45.256Z,7.63
2022-09-12T18:22:49.781Z,5.53
2022-09-12T18:27:51.651Z,7.97
2022-09-12T18:32:53.192Z,10.23
2022-09-12T18:37:55.117Z,7.82
2022-09-12T18:42:56.700Z,8.32
2022-09-12T18:47:58.253Z,9.70
2022-09-12T18:53:00.133Z,8.98
2022-09-12T18:58:01.758Z,9.50
2022-09-12T19:03:03.289Z,10.55
2022-09-12T19:08:05.130Z,8.93
2022-09-12T19:13:07.012Z,8.27
2022-09-12T19:18:09.562Z,12.50
2022-09-12T19:23:11.120Z,11.02
2022-09-12T19:28:12.637Z,9.00
2022-09-12T19:33:14.275Z,9.18
2022-09-12T19:38:16.691Z,11.05
2022-09-12T19:43:18.207Z,8.82
2022-09-12T19:48:20.254Z,11.88
2022-09-12T19:53:21.827Z,9.75
2022-09-12T19:58:23.474Z,12.50
2022-09-12T20:03:25.080Z,11.00
2022-09-12T20:08:26.980Z,9.70
2022-09-12T20:13:28.699Z,9.63
2022-09-12T20:18:30.235Z,11.80
2022-09-12T20:23:31.797Z,9.85
2022-09-12T20:28:33.404Z,12.57
2022-09-12T20:33:35.048Z,11.23
2022-09-12T20:38:36.713Z,11.50
2022-09-12T20:43:39.773Z,13.02
2022-09-12T20:48:41.295Z,11.73
2022-09-12T20:53:42.816Z,11.60
2022-09-12T20:58:44.931Z,13.52
2022-09-12T21:03:47.046Z,10.32
2022-09-12T21:08:49.833Z,10.15
2022-09-12T21:13:52.292Z,8.57
2022-09-12T21:18:59.677Z,11.15
2022-09-12T21:24:02.922Z,11.45
2022-09-12T21:29:04.513Z,12.85
2022-09-12T21:34:06.059Z,13.90
2022-09-12T21:39:07.649Z,9.57
2022-09-12T21:44:09.184Z,9.20
2022-09-12T21:49:10.841Z,13.73
2022-09-12T21:54:12.451Z,11.30
2022-09-12T21:59:14.083Z,13.65
2022-09-12T22:04:15.666Z,11.45
2022-09-12T22:09:17.429Z,12.90
2022-09-12T22:14:19.073Z,11.98
2022-09-12T22:19:20.801Z,13.55
2022-09-12T22:24:28.050Z,13.50
2022-09-12T22:29:29.600Z,15.38
2022-09-12T22:34:31.221Z,13.68
2022-09-12T22:39:32.886Z,13.25
2022-09-12T22:44:34.420Z,16.73
2022-09-12T22:49:35.951Z,14.93
2022-09-12T22:54:37.752Z,12.45
2022-09-12T22:59:39.582Z,13.68
2022-09-12T23:04:41.132Z,15.13
2022-09-12T23:09:42.716Z,15.48
2022-09-12T23:14:44.254Z,13.05
2022-09-12T23:19:45.792Z,16.10
2022-09-12T23:24:47.336Z,12.50
2022-09-12T23:29:52.388Z,13.75
2022-09-12T23:34:54.060Z,11.82
2022-09-12T23:39:55.884Z,14.25
2022-09-12T23:44:57.523Z,12.95
2022-09-12T23:49:59.093Z,12.05
2022-09-12T23:55:00.654Z,11.00
